Flight Track Log - Related Links

Times and Time Zones

All times are in EST time to prevent confusion due to time zone crossing. See the JIA2497 flight status page for this flight to view local times or setup timezone preferences in your user account.

Time Position Orientation Groundspeed Altitude Reporting Facility
EST Latitude Longitude Course Direction KTS MPH feet Rate Location/Type
Tue 05:21:51 AM 34.2102 -79.6630 309° West  Level FlightAware Approximate
Tue 05:28:13 AM 34.2622 -79.7394 310° West 302 348 5,900  Level Jacksonville Center
Tue 05:29:13 AM 34.3100 -79.8081 312° West 281 323 8,800 2,950 Climbing Jacksonville Center
Tue 05:30:13 AM 34.3617 -79.8767 313° West 275 316 11,800 1,550 Climbing Jacksonville Center
Tue 05:31:13 AM 34.4153 -79.9453 310° West 275 316 11,900 -200 Climbing Jacksonville Center
Tue 05:32:13 AM 34.4672 -80.0192 314° West 282 325 11,400 -500 Descending Jacksonville Center
Tue 05:33:13 AM 34.5250 -80.0928 309° West 287 330 10,900 -152 Descending Jacksonville Center
Tue 05:34:51 AM 34.6094 -80.2203 313° West 286 329 11,000 38 Climbing Atlanta Center
Tue 05:35:52 AM 34.6617 -80.2886 314° West 279 321 11,000  Level Atlanta Center
Tue 05:36:52 AM 34.7136 -80.3544 314° West 275 316 11,000  Level Atlanta Center
Tue 05:37:53 AM 34.7678 -80.4231 314° West 275 316 11,000  Level Atlanta Center
Tue 05:38:48 AM 34.8178 -80.4867 315° West 276 318 11,000  Level Atlanta Center
Tue 05:39:48 AM 34.8694 -80.5503 316° Northwest 278 320 11,000 -470 Level Atlanta Center
Tue 05:40:43 AM 34.9236 -80.6139 313° West 282 325 10,100 -1,043 Descending Atlanta Center
Tue 05:41:43 AM 34.9756 -80.6825 314° West 280 322 9,000 -545 Descending Atlanta Center
Tue 05:42:44 AM 35.0317 -80.7539 326° Northwest 283 326 9,000  Level Atlanta Center
Tue 05:43:51 AM 35.1042 -80.8144 357° North 300 345 9,000 -236 Level Atlanta Center
Tue 05:44:51 AM 35.1836 -80.8192 41° Northeast 277 319 8,500 -893 Descending Atlanta Center
Tue 05:45:52 AM 35.2383 -80.7611 33° Northeast 266 306 7,200 -1,587 Descending Atlanta Center
Tue 05:46:52 AM 35.2917 -80.7181 299° West 252 290 5,300 -1,512 Descending Atlanta Center
Tue 05:47:59 AM 35.3203 -80.7806 241° Southwest 195 224 4,000 -1,078 Descending Atlanta Center
Tue 05:49:00 AM 35.2967 -80.8325 241° Southwest 178 205 3,000 -984 Descending Atlanta Center

Login

Don't have an account? Register now (free) for customized features, flight alerts, and more!